Startpagina
METAR-TAF:

METAR-TAF

Vliegvelden :

Alice Springs, Australië

breedte: 23-48S, lengte: 133-53E, hoogte: 545 m

Actueel weer

Dit bericht is 5 minuten geleden gemaakt, om 15:00 UTC
Wind 5 kt uit het oostnoordoosten
Temperatuur 34°C
Vochtigheid 15%
Druk 1011 hPa
Zicht 10 km of meer

METAR: YBAS 201500Z AUTO 07005KT 9999 // NCD 34/04 Q1011

Tijdstip: 00:35 (15:05 UTC)

Verwachting

Dit bericht is 3 uur en het 42 minuten geleden gemaakt, om 11:23 UTC
Verwachting geldig van 20 om 12 UTC tot 21 om 12 UTC
Wind 6 kt uit het oosten
Zicht 10 km of meer
geen wolken onder 1500 m en geen cumulonimbus
Van 21 om 0100 UTC
Wind 15 kt uit het oosten met uitschieters tot 25 kt
Zicht 10 km of meer
geen wolken onder 1500 m en geen cumulonimbus
Van 21 om 0900 UTC
Wind 8 kt uit het oosten
Zicht 10 km of meer
geen wolken onder 1500 m en geen cumulonimbus

TAF: YBAS 201123Z 2012/2112 08006KT CAVOK FM210100 08015G25KT CAVOK FM210900 08008KT CAVOK

Waarnemingen en weersverwachtingen van meer dan 4000 vliegvelden (METAR en TAF).

De beschikbare stations zijn de gele en rode punten op de kaart.

Ga met uw muis naar het station om de naam te zien.

Klik dan om waarnemingen en weersverwachtingen te zien.

kaart wijzigen: klik op de groene knoppen met een zwart kruis om in te zoomen, op de groene knop met een streepje om uit te zoomen of op de groene pijlen voor aangrenzende kaarten.


METAR-TAF: